Time;durP1;ratioP1;P1;durP2;ratioP2;P2;SDS_P1;SDS_P2;PMS_P1;PMS_P2;Temp;Humidity;BMP_temperature;BMP_pressure;BME280_temperature;BME280_humidity;BME280_pressure;Samples;Min_cycle;Max_cycle;Signal;HPM_P1;HPM_P2
2021/12/21 00:02:10;;;;;;;10.37;5.50;;;-1.00;99.90;;;;;;5084415;28;20621;-70
2021/12/21 00:04:37;;;;;;;13.03;5.73;;;-0.90;99.90;;;;;;5074693;28;20635;-70
2021/12/21 00:07:06;;;;;;;11.70;5.27;;;-0.90;99.90;;;;;;5073351;28;20209;-69
2021/12/21 00:09:33;;;;;;;10.20;5.77;;;-0.80;99.90;;;;;;5074682;28;20266;-71
2021/12/21 00:12:01;;;;;;;8.37;5.10;;;-0.70;99.90;;;;;;5073856;28;20265;-70
2021/12/21 00:14:37;;;;;;;9.20;5.20;;;-0.70;99.90;;;;;;5075831;28;20201;-70
2021/12/21 00:17:17;;;;;;;8.50;5.10;;;-0.70;99.90;;;;;;5073721;28;20224;-70
2021/12/21 00:20:09;;;;;;;11.30;5.40;;;-0.70;99.90;;;;;;5074174;28;20201;-69
2021/12/21 00:23:16;;;;;;;11.57;5.23;;;-0.70;99.90;;;;;;5075015;28;20209;-69
2021/12/21 00:25:39;;;;;;;12.07;6.20;;;-0.60;99.90;;;;;;5072335;28;20240;-70
2021/12/21 00:28:06;;;;;;;11.13;6.00;;;-0.50;99.90;;;;;;5073645;28;20681;-69
2021/12/21 00:30:32;;;;;;;10.73;5.27;;;-0.50;99.90;;;;;;5075172;28;20587;-70
2021/12/21 00:32:59;;;;;;;14.13;6.07;;;-0.40;99.90;;;;;;5075941;28;20225;-69
2021/12/21 00:35:26;;;;;;;10.70;5.73;;;-0.40;99.90;;;;;;5076332;28;20219;-70
2021/12/21 00:37:56;;;;;;;12.80;6.03;;;-0.40;99.90;;;;;;5074505;28;20208;-68
2021/12/21 00:40:23;;;;;;;11.07;5.70;;;-0.40;99.90;;;;;;5072104;28;20506;-68
2021/12/21 00:42:50;;;;;;;11.23;5.67;;;-0.40;99.90;;;;;;5067523;28;20202;-67
2021/12/21 00:45:17;;;;;;;11.57;5.93;;;-0.30;99.90;;;;;;5072857;28;20635;-68
2021/12/21 00:47:47;;;;;;;10.63;6.43;;;-0.30;99.90;;;;;;5072334;28;20714;-68
2021/12/21 00:50:17;;;;;;;9.60;5.13;;;-0.30;99.90;;;;;;5080571;28;20201;-67
2021/12/21 00:52:45;;;;;;;9.93;5.67;;;-0.30;99.90;;;;;;5078711;28;20243;-68
2021/12/21 00:55:14;;;;;;;12.53;6.20;;;-0.30;99.90;;;;;;5074644;28;20816;-67
2021/12/21 00:57:41;;;;;;;11.70;5.73;;;-0.20;99.90;;;;;;5074856;28;20239;-70
2021/12/21 01:00:14;;;;;;;11.67;6.37;;;-0.20;99.90;;;;;;5075650;28;20231;-67
2021/12/21 01:02:42;;;;;;;10.70;6.13;;;-0.10;99.90;;;;;;5075407;28;20229;-68
2021/12/21 01:05:16;;;;;;;10.37;5.60;;;-0.10;99.90;;;;;;5081792;28;20240;-68
2021/12/21 01:07:47;;;;;;;10.40;6.30;;;-0.10;99.90;;;;;;5074117;28;20205;-68
2021/12/21 01:13:12;;;;;;;16.00;6.10;;;-0.10;99.90;;;;;;5066923;28;20233;-67
2021/12/21 01:15:55;;;;;;;9.37;5.77;;;-0.10;99.90;;;;;;5060993;28;20243;-69
2021/12/21 01:18:26;;;;;;;9.67;5.80;;;-0.10;99.90;;;;;;5075857;28;20205;-68
2021/12/21 01:21:04;;;;;;;9.43;5.13;;;-0.10;99.90;;;;;;5075767;28;20250;-68
2021/12/21 01:26:23;;;;;;;8.40;4.50;;;0.00;99.90;;;;;;5074083;28;20232;-68
2021/12/21 01:28:57;;;;;;;6.87;4.53;;;0.10;99.90;;;;;;5075546;28;20201;-67
2021/12/21 01:31:31;;;;;;;12.10;5.13;;;0.10;99.90;;;;;;5075210;28;20201;-68
2021/12/21 01:34:12;;;;;;;8.83;4.50;;;0.10;99.90;;;;;;5078266;28;20687;-68
2021/12/21 01:36:46;;;;;;;9.17;5.00;;;0.10;99.90;;;;;;5071697;28;20202;-68
2021/12/21 01:39:30;;;;;;;8.00;4.77;;;0.10;99.90;;;;;;5074479;28;20209;-68
2021/12/21 01:42:04;;;;;;;9.20;5.10;;;0.00;99.90;;;;;;5075788;28;20666;-68
2021/12/21 01:49:31;;;;;;;7.70;4.37;;;0.00;99.90;;;;;;5061952;28;20198;-67
2021/12/21 01:50:18;;;;;;;7.30;4.60;;;0.00;99.90;;;;;;5033886;28;20514;-67
2021/12/21 01:52:45;;;;;;;8.80;4.33;;;0.00;99.90;;;;;;5032054;28;20219;-67
2021/12/21 01:55:13;;;;;;;9.90;4.83;;;-0.10;99.90;;;;;;5050501;28;20294;-67
2021/12/21 01:57:41;;;;;;;9.90;5.20;;;-0.10;99.90;;;;;;5074870;28;20313;-67
2021/12/21 02:00:09;;;;;;;10.23;4.50;;;-0.10;99.90;;;;;;5075091;28;20212;-67
2021/12/21 02:02:37;;;;;;;8.83;4.37;;;-0.10;99.90;;;;;;5074205;28;20231;-68
2021/12/21 02:05:05;;;;;;;8.40;4.33;;;-0.20;99.90;;;;;;5074551;28;20738;-70
2021/12/21 02:07:31;;;;;;;9.13;4.60;;;-0.20;99.90;;;;;;5075658;28;20762;-68
2021/12/21 02:09:58;;;;;;;6.97;4.40;;;-0.20;99.90;;;;;;5074481;28;20207;-68
2021/12/21 02:12:25;;;;;;;8.03;3.87;;;-0.20;99.90;;;;;;5074542;28;20365;-68
2021/12/21 02:14:57;;;;;;;6.80;3.60;;;-0.20;99.90;;;;;;5074779;28;20209;-69
2021/12/21 02:18:27;;;;;;;7.43;3.43;;;-0.20;99.90;;;;;;5060904;28;20258;-68
2021/12/21 02:20:44;;;;;;;7.73;3.83;;;-0.30;99.90;;;;;;5074956;28;20208;-69
2021/12/21 02:23:16;;;;;;;6.27;3.63;;;-0.30;99.90;;;;;;5074881;28;20211;-68
2021/12/21 02:28:58;;;;;;;7.57;3.97;;;-0.30;99.90;;;;;;5025957;28;20216;-68
2021/12/21 02:31:26;;;;;;;7.80;3.70;;;-0.30;99.90;;;;;;5064519;28;20209;-68
2021/12/21 02:33:54;;;;;;;5.87;3.17;;;-0.40;99.90;;;;;;5073949;28;20248;-68
2021/12/21 02:36:22;;;;;;;3.77;2.83;;;-0.40;99.90;;;;;;5074215;28;20706;-69
2021/12/21 02:38:49;;;;;;;4.83;2.83;;;-0.40;99.90;;;;;;5074368;28;20573;-67
2021/12/21 02:41:16;;;;;;;6.23;2.93;;;-0.50;99.90;;;;;;5074185;28;20288;-69
2021/12/21 02:43:43;;;;;;;4.20;2.60;;;-0.50;99.90;;;;;;5074725;28;20219;-68
2021/12/21 02:46:10;;;;;;;5.10;2.80;;;-0.50;99.90;;;;;;5074423;28;20208;-68
2021/12/21 02:48:37;;;;;;;5.10;2.83;;;-0.50;99.90;;;;;;5079023;28;20244;-68
2021/12/21 02:51:04;;;;;;;3.93;2.90;;;-0.50;99.90;;;;;;5073881;28;20271;-68
2021/12/21 02:53:32;;;;;;;4.93;2.53;;;-0.50;99.90;;;;;;5073235;28;20220;-69
2021/12/21 02:55:59;;;;;;;4.00;2.43;;;-0.50;99.90;;;;;;5077908;28;20283;-68
2021/12/21 02:58:26;;;;;;;4.53;2.73;;;-0.50;99.90;;;;;;5074225;28;20296;-69
2021/12/21 03:00:54;;;;;;;2.87;2.50;;;-0.50;99.90;;;;;;5074394;28;20287;-68
2021/12/21 03:03:21;;;;;;;4.43;2.63;;;-0.50;99.90;;;;;;5074572;28;20205;-69
2021/12/21 03:05:51;;;;;;;6.73;2.80;;;-0.50;99.90;;;;;;5074339;28;20615;-69
2021/12/21 03:08:22;;;;;;;5.53;2.47;;;-0.50;99.90;;;;;;5072943;28;20206;-68
2021/12/21 03:11:06;;;;;;;4.97;2.63;;;-0.50;99.90;;;;;;5074752;28;20729;-69
2021/12/21 03:13:54;;;;;;;4.73;2.53;;;-0.50;99.90;;;;;;5074639;28;20221;-68
2021/12/21 03:16:22;;;;;;;4.50;2.40;;;-0.60;99.90;;;;;;5074480;28;20299;-68
2021/12/21 03:18:48;;;;;;;4.07;2.70;;;-0.50;99.90;;;;;;5073014;28;20213;-68
2021/12/21 03:21:16;;;;;;;3.97;2.20;;;-0.60;99.90;;;;;;5074522;28;20236;-69
2021/12/21 03:23:42;;;;;;;5.00;2.10;;;-0.60;99.90;;;;;;5074382;28;20206;-69
2021/12/21 03:26:11;;;;;;;5.97;2.70;;;-0.60;99.90;;;;;;5080445;28;20551;-69
2021/12/21 03:28:38;;;;;;;5.43;2.57;;;-0.60;99.90;;;;;;5074846;28;20654;-69
2021/12/21 03:31:05;;;;;;;4.00;2.20;;;-0.60;99.90;;;;;;5073700;28;20213;-69
2021/12/21 03:33:32;;;;;;;3.63;2.20;;;-0.60;99.90;;;;;;5074175;28;20225;-69
2021/12/21 03:36:00;;;;;;;5.33;2.60;;;-0.60;99.90;;;;;;5074403;28;20665;-69
2021/12/21 03:38:28;;;;;;;4.07;2.50;;;-0.60;99.90;;;;;;5067995;28;20301;-69
2021/12/21 03:41:01;;;;;;;2.40;2.10;;;-0.60;99.90;;;;;;5084635;28;20635;-69
2021/12/21 03:43:30;;;;;;;3.27;1.87;;;-0.70;99.90;;;;;;5073488;28;20205;-69
2021/12/21 03:46:05;;;;;;;3.37;2.07;;;-0.70;99.90;;;;;;5072998;28;21001;-69
2021/12/21 03:48:33;;;;;;;4.13;2.10;;;-0.70;99.90;;;;;;5073700;28;20192;-69
2021/12/21 03:50:59;;;;;;;4.23;2.33;;;-0.70;99.90;;;;;;5073806;28;20285;-69
2021/12/21 03:53:26;;;;;;;3.43;2.30;;;-0.60;99.90;;;;;;5073225;28;20309;-68
2021/12/21 03:56:04;;;;;;;4.80;2.50;;;-0.70;99.90;;;;;;5072768;28;20220;-69
2021/12/21 03:58:32;;;;;;;3.80;2.50;;;-0.70;99.90;;;;;;5073756;28;20261;-69
2021/12/21 04:00:59;;;;;;;3.60;2.60;;;-0.60;99.90;;;;;;5073495;28;20299;-68
2021/12/21 04:03:26;;;;;;;3.80;2.63;;;-0.70;99.90;;;;;;5073984;28;20722;-68
2021/12/21 04:05:52;;;;;;;3.67;2.20;;;-0.70;99.90;;;;;;5073086;28;20740;-68
2021/12/21 04:08:19;;;;;;;3.00;2.03;;;-0.70;99.90;;;;;;5072387;28;20662;-69
2021/12/21 04:10:46;;;;;;;3.83;2.03;;;-0.80;99.90;;;;;;5078356;28;20216;-68
2021/12/21 04:13:13;;;;;;;7.03;2.20;;;-0.80;99.90;;;;;;5075718;28;20205;-69
2021/12/21 04:15:43;;;;;;;4.50;2.37;;;-0.90;99.90;;;;;;5071499;28;20240;-68
2021/12/21 04:18:11;;;;;;;3.20;2.07;;;-1.10;99.90;;;;;;5072307;28;20201;-68
2021/12/21 04:20:39;;;;;;;4.23;2.20;;;-1.20;99.90;;;;;;5072493;28;20208;-68
2021/12/21 04:23:06;;;;;;;4.83;2.07;;;-1.30;99.90;;;;;;5072105;28;20212;-68
2021/12/21 04:25:33;;;;;;;4.90;2.13;;;-1.40;99.90;;;;;;5071334;28;20245;-68
2021/12/21 04:28:00;;;;;;;4.67;2.40;;;-1.40;99.90;;;;;;5063524;28;20216;-68
2021/12/21 04:30:28;;;;;;;2.47;2.13;;;-1.50;99.90;;;;;;5075405;28;20234;-69
2021/12/21 04:32:56;;;;;;;2.53;2.17;;;-1.60;99.90;;;;;;5076167;28;20202;-69
2021/12/21 04:35:24;;;;;;;3.63;1.83;;;-1.70;99.90;;;;;;5076515;28;20224;-68
2021/12/21 04:37:56;;;;;;;3.73;2.30;;;-1.80;99.90;;;;;;5068660;28;20725;-68
2021/12/21 04:40:27;;;;;;;1.53;1.30;;;-1.80;99.90;;;;;;5076381;28;20205;-68
2021/12/21 04:42:54;;;;;;;3.10;2.07;;;-1.90;99.90;;;;;;5062945;28;20227;-69
2021/12/21 04:45:21;;;;;;;4.37;2.30;;;-2.00;99.90;;;;;;5076572;28;20702;-69
2021/12/21 04:47:47;;;;;;;2.60;2.17;;;-2.10;99.90;;;;;;5075902;28;20221;-69
2021/12/21 04:50:16;;;;;;;3.03;1.97;;;-2.10;99.90;;;;;;5075448;28;20272;-68
2021/12/21 04:52:42;;;;;;;1.67;1.53;;;-2.20;99.90;;;;;;5075777;28;20297;-69
2021/12/21 04:55:10;;;;;;;2.37;1.50;;;-2.20;99.90;;;;;;5079200;28;20221;-68
2021/12/21 04:57:37;;;;;;;2.67;1.53;;;-2.20;99.90;;;;;;5075229;28;20594;-68
2021/12/21 05:00:06;;;;;;;1.80;1.30;;;-2.30;99.90;;;;;;5074960;28;20201;-69
2021/12/21 05:02:33;;;;;;;6.73;1.47;;;-2.30;99.90;;;;;;5074385;28;20219;-68
2021/12/21 05:05:00;;;;;;;3.33;1.57;;;-2.30;99.90;;;;;;5075193;28;20205;-68
2021/12/21 05:07:29;;;;;;;2.77;1.50;;;-2.30;99.90;;;;;;5074636;28;20208;-68
2021/12/21 05:09:58;;;;;;;2.90;1.50;;;-2.30;99.90;;;;;;5075794;28;20235;-70
2021/12/21 05:12:25;;;;;;;2.50;1.43;;;-2.30;99.90;;;;;;5075526;28;20658;-68
2021/12/21 05:14:52;;;;;;;3.20;1.90;;;-2.30;99.90;;;;;;5074823;28;20307;-68
2021/12/21 05:17:19;;;;;;;3.93;1.50;;;-2.30;99.80;;;;;;5064235;28;20499;-68
2021/12/21 05:19:46;;;;;;;1.90;1.57;;;-2.30;99.60;;;;;;5074394;28;20210;-68
2021/12/21 05:22:15;;;;;;;2.13;1.40;;;-2.40;99.30;;;;;;5075515;28;20209;-69
2021/12/21 05:24:43;;;;;;;1.70;1.13;;;-2.40;99.00;;;;;;5075690;28;20643;-69
2021/12/21 05:27:11;;;;;;;2.13;1.33;;;-2.50;98.50;;;;;;5075873;28;20590;-69
2021/12/21 05:29:38;;;;;;;5.07;1.20;;;-2.60;98.00;;;;;;5075453;28;20423;-69
2021/12/21 05:32:06;;;;;;;3.17;1.07;;;-2.70;97.60;;;;;;5074824;28;20209;-69
2021/12/21 05:34:33;;;;;;;2.70;1.50;;;-2.70;97.50;;;;;;5074837;28;20300;-68
2021/12/21 05:37:05;;;;;;;3.37;1.90;;;-2.80;97.40;;;;;;5068751;28;20206;-69
2021/12/21 05:39:40;;;;;;;1.50;1.30;;;-2.80;97.40;;;;;;5061219;28;20221;-68
2021/12/21 05:42:09;;;;;;;1.80;1.30;;;-2.90;97.30;;;;;;5073796;28;20263;-69
2021/12/21 05:44:36;;;;;;;3.33;1.40;;;-3.00;97.20;;;;;;5073769;28;20215;-68
2021/12/21 05:47:03;;;;;;;2.03;1.60;;;-3.00;97.30;;;;;;5083884;28;20220;-68
2021/12/21 05:49:33;;;;;;;3.00;1.57;;;-3.10;97.20;;;;;;5074623;28;20235;-69
2021/12/21 05:52:00;;;;;;;2.63;1.80;;;-3.20;97.20;;;;;;5074898;28;20209;-68
2021/12/21 05:54:27;;;;;;;2.73;1.67;;;-3.20;97.20;;;;;;5074372;28;20233;-69
2021/12/21 05:56:54;;;;;;;1.37;1.13;;;-3.30;97.20;;;;;;5074264;28;20251;-69
2021/12/21 05:59:22;;;;;;;4.00;1.37;;;-3.30;97.10;;;;;;5074791;28;20243;-68
2021/12/21 06:01:49;;;;;;;1.80;1.30;;;-3.30;97.10;;;;;;5075627;28;20223;-69
2021/12/21 06:04:15;;;;;;;4.10;1.70;;;-3.40;97.00;;;;;;5074675;28;20383;-68
2021/12/21 06:06:42;;;;;;;3.93;1.83;;;-3.50;96.90;;;;;;5074333;28;20209;-69
2021/12/21 06:09:11;;;;;;;3.83;1.50;;;-3.50;97.00;;;;;;5073984;28;20236;-69
2021/12/21 06:11:45;;;;;;;1.57;1.13;;;-3.50;97.00;;;;;;5073445;28;20714;-68
2021/12/21 06:14:22;;;;;;;3.80;1.73;;;-3.50;96.80;;;;;;5073872;28;20751;-68
2021/12/21 06:22:55;;;;;;;2.47;1.57;;;-3.60;96.60;;;;;;5009244;28;20277;-70
2021/12/21 06:25:35;;;;;;;1.90;1.60;;;-3.70;96.60;;;;;;5070246;28;20207;-71
2021/12/21 06:28:03;;;;;;;7.93;1.60;;;-3.60;96.70;;;;;;5080979;28;20201;-71
2021/12/21 06:30:30;;;;;;;4.07;2.27;;;-3.70;96.60;;;;;;5073462;28;20205;-71
2021/12/21 06:32:58;;;;;;;2.40;1.77;;;-3.70;96.60;;;;;;5074068;28;20220;-71
2021/12/21 06:35:26;;;;;;;3.70;2.03;;;-3.70;96.60;;;;;;5074357;28;20221;-72
2021/12/21 06:37:53;;;;;;;3.60;2.20;;;-3.70;97.00;;;;;;5074007;28;20213;-70
2021/12/21 06:40:21;;;;;;;3.97;1.60;;;-3.80;96.40;;;;;;5078069;28;20201;-71
2021/12/21 06:42:50;;;;;;;2.37;1.30;;;-3.80;96.20;;;;;;5074366;28;20205;-71
2021/12/21 06:45:28;;;;;;;4.80;1.53;;;-3.80;96.10;;;;;;5075134;28;20433;-70
2021/12/21 06:53:27;;;;;;;3.13;1.70;;;-3.80;95.80;;;;;;5074815;28;20208;-71
2021/12/21 06:55:54;;;;;;;3.17;1.70;;;-3.80;95.70;;;;;;5074869;28;20708;-73
2021/12/21 06:58:21;;;;;;;2.23;1.77;;;-3.90;95.50;;;;;;5073877;28;20284;-72
2021/12/21 07:00:50;;;;;;;4.87;1.80;;;-3.90;95.50;;;;;;5063860;28;20618;-73
2021/12/21 07:03:17;;;;;;;9.77;2.10;;;-3.80;95.70;;;;;;5073774;28;20205;-72
2021/12/21 07:05:46;;;;;;;11.67;4.40;;;-3.80;95.90;;;;;;5075250;28;20276;-72
2021/12/21 07:08:16;;;;;;;4.53;2.80;;;-3.80;96.10;;;;;;5072895;28;20741;-71
2021/12/21 07:10:52;;;;;;;4.70;2.40;;;-3.70;96.20;;;;;;5072854;28;20232;-72
2021/12/21 07:18:47;;;;;;;3.70;2.17;;;-3.50;96.30;;;;;;5074923;28;20636;-73
2021/12/21 07:21:17;;;;;;;2.67;1.63;;;-3.50;96.20;;;;;;5076185;28;20662;-71
2021/12/21 07:23:44;;;;;;;8.93;2.10;;;-3.50;96.00;;;;;;5072442;28;20729;-71
2021/12/21 07:26:10;;;;;;;2.50;1.70;;;-3.40;95.90;;;;;;5073663;28;20241;-72
2021/12/21 07:28:37;;;;;;;4.60;1.70;;;-3.30;95.80;;;;;;5072886;28;20211;-70
2021/12/21 07:31:05;;;;;;;3.27;1.93;;;-3.30;95.70;;;;;;5073965;28;20202;-70
2021/12/21 07:33:32;;;;;;;3.30;1.77;;;-3.30;95.60;;;;;;5071783;28;20516;-67
2021/12/21 07:35:59;;;;;;;4.20;1.87;;;-3.30;95.50;;;;;;5071265;28;20244;-66
2021/12/21 07:38:30;;;;;;;4.80;1.80;;;-3.30;95.40;;;;;;5071589;28;20216;-68
2021/12/21 07:40:57;;;;;;;3.53;1.90;;;-3.10;95.20;;;;;;5070923;28;20221;-66
2021/12/21 07:43:24;;;;;;;6.83;1.70;;;-3.10;95.20;;;;;;5072446;28;20205;-67
2021/12/21 07:45:52;;;;;;;7.60;1.70;;;-3.00;95.20;;;;;;5072386;28;20201;-67
2021/12/21 07:48:19;;;;;;;3.23;1.70;;;-2.90;95.30;;;;;;5071585;28;20201;-68
2021/12/21 07:50:47;;;;;;;7.23;1.70;;;-2.70;95.40;;;;;;5083442;28;20296;-67
2021/12/21 07:53:15;;;;;;;2.50;1.60;;;-2.60;95.00;;;;;;5074495;28;20270;-69
2021/12/21 07:55:44;;;;;;;2.27;1.70;;;-2.50;94.90;;;;;;5073313;28;20216;-71
2021/12/21 07:58:11;;;;;;;4.30;1.87;;;-2.30;94.80;;;;;;5069349;28;20296;-68
2021/12/21 08:00:38;;;;;;;3.30;2.20;;;-2.20;94.40;;;;;;5075007;28;20211;-68
2021/12/21 08:03:06;;;;;;;3.17;2.20;;;-2.10;94.20;;;;;;5071862;28;20220;-69
2021/12/21 08:05:35;;;;;;;3.57;2.17;;;-2.10;94.00;;;;;;5069171;28;20710;-68
2021/12/21 08:08:11;;;;;;;1.57;1.30;;;-2.00;93.60;;;;;;5071227;28;20269;-67
2021/12/21 08:10:45;;;;;;;2.97;1.40;;;-1.90;93.70;;;;;;5064757;28;20308;-68
2021/12/21 08:13:13;;;;;;;1.87;1.50;;;-1.80;93.70;;;;;;5065511;28;20650;-69
2021/12/21 08:15:40;;;;;;;1.33;1.23;;;-1.80;93.40;;;;;;5071419;28;20717;-69
2021/12/21 08:18:07;;;;;;;2.57;1.80;;;-1.70;93.30;;;;;;5071605;28;20296;-69
2021/12/21 08:20:35;;;;;;;2.90;1.77;;;-1.70;93.00;;;;;;5071433;28;20205;-67
2021/12/21 08:23:02;;;;;;;6.40;2.10;;;-1.60;92.90;;;;;;5070754;28;20205;-68
2021/12/21 08:25:29;;;;;;;2.73;1.57;;;-1.40;92.80;;;;;;5071604;28;20237;-69
2021/12/21 08:27:57;;;;;;;2.77;1.40;;;-1.20;92.30;;;;;;5071177;28;20213;-68
2021/12/21 08:30:27;;;;;;;3.87;1.83;;;-1.00;91.90;;;;;;5070421;28;20225;-68
2021/12/21 08:32:54;;;;;;;2.80;1.70;;;-0.80;91.60;;;;;;5071246;28;20514;-67
2021/12/21 08:35:22;;;;;;;3.30;1.63;;;-0.60;91.10;;;;;;5068489;28;20594;-68
2021/12/21 08:37:52;;;;;;;2.93;1.80;;;-0.30;90.80;;;;;;5070831;28;20245;-68
2021/12/21 08:40:20;;;;;;;3.00;1.20;;;-0.10;90.80;;;;;;5064703;28;20678;-69
2021/12/21 08:42:49;;;;;;;5.93;1.50;;;0.20;92.50;;;;;;5071198;28;20326;-68
2021/12/21 08:45:17;;;;;;;5.03;1.43;;;1.00;92.80;;;;;;5071166;28;20851;-69
2021/12/21 08:47:45;;;;;;;2.23;1.50;;;2.80;98.30;;;;;;5072637;28;20210;-68
2021/12/21 08:50:14;;;;;;;2.17;1.27;;;5.20;93.60;;;;;;5072745;28;20205;-67
2021/12/21 08:52:41;;;;;;;4.73;1.93;;;7.70;82.20;;;;;;5074730;28;20228;-69
2021/12/21 08:55:10;;;;;;;2.97;1.50;;;10.00;58.40;;;;;;5074349;28;20213;-69
2021/12/21 08:57:37;;;;;;;6.23;1.57;;;11.90;49.30;;;;;;5071577;28;20235;-71
2021/12/21 09:00:06;;;;;;;2.63;1.67;;;13.40;44.80;;;;;;5062977;28;21934;-71
2021/12/21 09:02:36;;;;;;;5.87;1.70;;;14.70;39.70;;;;;;5063270;28;20324;-71
2021/12/21 09:05:12;;;;;;;9.90;1.83;;;16.00;37.20;;;;;;5065816;28;20320;-71
2021/12/21 09:07:39;;;;;;;7.80;3.73;;;17.30;34.90;;;;;;5070373;28;20864;-71
2021/12/21 09:10:08;;;;;;;6.00;1.70;;;18.40;32.90;;;;;;5073074;28;20204;-70
2021/12/21 09:12:35;;;;;;;6.55;2.03;;;19.40;31.20;;;;;;5072530;28;20713;-71
2021/12/21 09:15:02;;;;;;;6.88;2.03;;;20.10;29.80;;;;;;5073870;28;20221;-70
2021/12/21 09:17:29;;;;;;;5.38;2.30;;;20.60;28.60;;;;;;5072239;28;20202;-70
2021/12/21 09:19:56;;;;;;;4.97;2.20;;;21.00;28.40;;;;;;5067023;28;20209;-70
2021/12/21 09:22:24;;;;;;;4.10;1.77;;;21.60;27.50;;;;;;5070805;28;20202;-70
2021/12/21 09:24:52;;;;;;;4.10;2.00;;;22.10;27.00;;;;;;5070978;28;20207;-70
2021/12/21 09:27:19;;;;;;;7.05;2.33;;;22.80;26.60;;;;;;5068786;28;20237;-70
2021/12/21 09:29:46;;;;;;;5.45;3.13;;;23.10;26.10;;;;;;5067557;28;21741;-70
2021/12/21 09:32:15;;;;;;;5.65;2.03;;;23.60;25.90;;;;;;5066717;28;20201;-72
2021/12/21 09:34:44;;;;;;;4.15;2.08;;;24.00;24.90;;;;;;5069905;28;20216;-71
2021/12/21 09:37:16;;;;;;;8.50;2.40;;;23.70;23.80;;;;;;5065819;28;20198;-71
2021/12/21 09:39:45;;;;;;;4.90;2.17;;;23.40;23.40;;;;;;5067861;28;20201;-71
2021/12/21 09:42:16;;;;;;;6.65;2.28;;;23.50;23.50;;;;;;5068033;28;20230;-70
2021/12/21 09:44:43;;;;;;;4.07;2.15;;;24.00;23.70;;;;;;5066357;28;20304;-70
2021/12/21 09:47:10;;;;;;;8.48;2.88;;;24.30;23.00;;;;;;5065203;28;20202;-71
2021/12/21 09:49:38;;;;;;;4.10;2.20;;;24.60;22.60;;;;;;5064370;28;20583;-70
2021/12/21 09:52:06;;;;;;;2.85;1.63;;;24.40;22.30;;;;;;5065740;28;20205;-72
2021/12/21 09:54:34;;;;;;;5.05;2.08;;;24.20;22.00;;;;;;5064135;28;20222;-71
2021/12/21 09:57:03;;;;;;;4.97;2.08;;;23.90;21.80;;;;;;5068218;28;20235;-71
2021/12/21 09:59:30;;;;;;;3.53;1.77;;;24.00;22.00;;;;;;5074222;28;20331;-71
2021/12/21 10:01:57;;;;;;;6.35;2.33;;;23.30;20.50;;;;;;5065179;28;20275;-70
2021/12/21 10:04:25;;;;;;;9.13;2.70;;;21.40;20.00;;;;;;5067141;28;20209;-70
2021/12/21 10:06:55;;;;;;;5.50;1.98;;;18.90;20.00;;;;;;5066909;28;20208;-71
2021/12/21 10:09:25;;;;;;;5.97;2.50;;;16.40;20.70;;;;;;5075156;28;20237;-70
2021/12/21 10:11:53;;;;;;;4.03;2.10;;;15.50;24.90;;;;;;5065652;28;20212;-71
2021/12/21 10:14:25;;;;;;;5.47;3.00;;;16.40;25.10;;;;;;5066577;28;20309;-71
2021/12/21 10:17:01;;;;;;;5.33;3.40;;;18.00;24.10;;;;;;5068059;28;20309;-71
2021/12/21 10:19:28;;;;;;;4.37;2.63;;;19.80;24.20;;;;;;5063928;28;20258;-71
2021/12/21 10:21:55;;;;;;;6.30;2.75;;;21.20;23.20;;;;;;5066250;28;20193;-70
2021/12/21 10:24:24;;;;;;;5.32;2.30;;;22.20;23.20;;;;;;5065294;28;20293;-70
2021/12/21 10:26:53;;;;;;;8.65;3.05;;;23.10;22.60;;;;;;5065191;28;20241;-70
2021/12/21 10:29:22;;;;;;;9.40;3.03;;;23.60;22.60;;;;;;5066253;28;20209;-70
2021/12/21 10:31:50;;;;;;;9.60;2.85;;;24.40;22.80;;;;;;5066414;28;20586;-70
2021/12/21 10:34:18;;;;;;;5.13;2.47;;;25.40;22.50;;;;;;5069557;28;20212;-71
2021/12/21 10:36:47;;;;;;;4.30;2.78;;;26.60;22.10;;;;;;5074883;28;20223;-70
2021/12/21 10:39:20;;;;;;;10.75;3.60;;;27.70;21.60;;;;;;5066956;28;20857;-69
2021/12/21 10:41:49;;;;;;;12.20;3.25;;;28.60;21.10;;;;;;5066054;28;20688;-70
2021/12/21 10:44:18;;;;;;;5.40;2.90;;;29.40;20.90;;;;;;5067127;28;20205;-71
2021/12/21 10:46:48;;;;;;;7.15;3.25;;;29.70;20.40;;;;;;5066816;28;20530;-71
2021/12/21 10:49:17;;;;;;;3.95;2.58;;;30.20;20.30;;;;;;5065931;28;20228;-71
2021/12/21 10:51:52;;;;;;;6.82;2.45;;;30.50;20.00;;;;;;5066829;28;20570;-71
2021/12/21 10:54:27;;;;;;;4.13;2.45;;;30.80;19.60;;;;;;5064311;28;20201;-71
2021/12/21 10:56:58;;;;;;;4.30;2.42;;;30.80;19.50;;;;;;5065732;28;20225;-72
2021/12/21 10:59:30;;;;;;;6.57;2.95;;;30.80;19.40;;;;;;5064124;28;20616;-70
2021/12/21 11:02:07;;;;;;;7.00;2.92;;;30.90;19.40;;;;;;5065105;28;20217;-71
2021/12/21 11:04:39;;;;;;;7.15;3.25;;;30.90;19.30;;;;;;5067399;28;20205;-71
2021/12/21 11:07:22;;;;;;;6.80;3.17;;;31.00;19.40;;;;;;5067248;28;20685;-71
2021/12/21 11:09:57;;;;;;;5.22;2.63;;;31.10;19.50;;;;;;5072626;28;20639;-71
2021/12/21 11:12:25;;;;;;;7.22;3.40;;;30.80;19.40;;;;;;5066460;28;20216;-72
2021/12/21 11:14:54;;;;;;;3.90;2.75;;;30.80;19.20;;;;;;5071053;28;20550;-70
2021/12/21 11:17:23;;;;;;;4.97;3.08;;;30.70;19.40;;;;;;5067994;28;20285;-70
2021/12/21 11:19:52;;;;;;;3.35;2.80;;;30.80;19.50;;;;;;5065192;28;20211;-71
2021/12/21 11:22:21;;;;;;;6.63;2.85;;;31.10;19.20;;;;;;5067381;28;20192;-71
2021/12/21 11:24:49;;;;;;;8.23;3.35;;;30.90;19.00;;;;;;5064065;28;20247;-71
2021/12/21 11:27:18;;;;;;;4.97;3.60;;;30.80;19.20;;;;;;5063501;28;20601;-70
2021/12/21 11:29:46;;;;;;;6.72;3.45;;;30.70;18.90;;;;;;5061617;28;20210;-70
2021/12/21 11:32:14;;;;;;;4.88;3.47;;;30.70;19.20;;;;;;5064621;28;20217;-70
2021/12/21 11:35:07;;;;;;;7.28;3.47;;;29.30;17.70;;;;;;5064617;28;20443;-72
2021/12/21 11:37:31;;;;;;;6.82;3.70;;;28.80;18.00;;;;;;5063680;28;20220;-69
2021/12/21 11:39:58;;;;;;;6.35;3.65;;;25.60;18.90;;;;;;5061625;28;20646;-70
2021/12/21 11:42:33;;;;;;;7.97;4.07;;;22.50;19.80;;;;;;5063017;28;20702;-73
2021/12/21 11:45:08;;;;;;;5.75;3.85;;;19.30;20.80;;;;;;5062330;28;20193;-70
2021/12/21 11:47:40;;;;;;;7.63;3.80;;;16.40;22.20;;;;;;5062727;28;20565;-71
2021/12/21 11:50:11;;;;;;;5.60;3.93;;;14.00;23.60;;;;;;5062975;28;20671;-71
2021/12/21 11:52:47;;;;;;;7.77;4.13;;;12.10;25.00;;;;;;5062305;28;20293;-71
2021/12/21 11:55:15;;;;;;;7.70;3.90;;;10.50;26.50;;;;;;5063459;28;20200;-72
2021/12/21 11:57:45;;;;;;;7.33;4.30;;;9.10;28.50;;;;;;5064348;28;20328;-70
2021/12/21 12:00:15;;;;;;;6.43;3.60;;;7.90;29.80;;;;;;5063600;28;20194;-70
2021/12/21 12:02:44;;;;;;;8.53;4.17;;;6.90;31.60;;;;;;5065430;28;20477;-72
2021/12/21 12:05:22;;;;;;;9.17;3.77;;;6.00;33.80;;;;;;5065172;28;20777;-72
2021/12/21 12:08:00;;;;;;;4.70;3.43;;;5.10;34.90;;;;;;5062154;28;20192;-70
2021/12/21 12:10:28;;;;;;;5.27;3.40;;;4.30;37.40;;;;;;5066405;28;20201;-71
2021/12/21 12:12:55;;;;;;;5.77;4.03;;;3.70;38.30;;;;;;5064870;28;20686;-70
2021/12/21 12:15:22;;;;;;;10.63;4.40;;;3.10;39.80;;;;;;5062040;28;20215;-70
2021/12/21 12:17:51;;;;;;;10.07;4.90;;;2.70;41.20;;;;;;5063058;28;20974;-71
2021/12/21 12:20:28;;;;;;;7.43;4.00;;;2.30;42.60;;;;;;5067386;28;20277;-70
2021/12/21 12:23:05;;;;;;;7.90;4.10;;;2.00;43.70;;;;;;5065902;28;20254;-71
2021/12/21 12:25:32;;;;;;;8.67;4.20;;;1.80;45.00;;;;;;5067205;28;20224;-71
2021/12/21 12:28:01;;;;;;;14.20;6.60;;;1.50;46.10;;;;;;5062760;28;20736;-69
2021/12/21 12:30:30;;;;;;;10.37;4.93;;;1.30;47.20;;;;;;5064516;28;20213;-69
2021/12/21 12:33:00;;;;;;;8.37;4.80;;;1.00;48.00;;;;;;5061947;28;20197;-71
2021/12/21 12:35:30;;;;;;;13.80;6.07;;;0.90;48.90;;;;;;5063348;28;20205;-68
2021/12/21 12:38:00;;;;;;;8.43;5.17;;;0.70;49.40;;;;;;5060473;28;20299;-70
2021/12/21 12:40:29;;;;;;;9.63;5.27;;;0.60;50.30;;;;;;5061647;28;20205;-71
2021/12/21 12:42:59;;;;;;;9.80;5.27;;;0.50;51.70;;;;;;5063169;28;20201;-70
2021/12/21 12:45:34;;;;;;;9.53;5.90;;;0.40;51.70;;;;;;5063540;28;20213;-69
2021/12/21 12:48:03;;;;;;;10.03;6.47;;;0.30;52.20;;;;;;5060808;28;20252;-68
2021/12/21 12:50:38;;;;;;;7.97;5.27;;;0.30;53.00;;;;;;5065238;28;20265;-74
2021/12/21 12:53:07;;;;;;;8.33;5.57;;;0.10;53.90;;;;;;5067964;28;20203;-71
2021/12/21 12:55:38;;;;;;;9.03;5.83;;;0.10;55.20;;;;;;5065305;28;20233;-69
2021/12/21 12:58:14;;;;;;;8.13;5.27;;;0.00;55.30;;;;;;5071171;28;20213;-68
2021/12/21 13:00:44;;;;;;;9.43;5.57;;;-0.10;56.50;;;;;;5069863;28;20209;-71
2021/12/21 13:03:14;;;;;;;10.40;6.03;;;-0.10;56.50;;;;;;5067992;28;20263;-69
2021/12/21 13:05:52;;;;;;;9.23;6.10;;;-0.10;56.80;;;;;;5070954;28;20212;-71
2021/12/21 13:08:21;;;;;;;10.67;5.80;;;-0.10;57.50;;;;;;5068259;28;20577;-72
2021/12/21 13:10:51;;;;;;;8.60;5.60;;;-0.10;58.20;;;;;;5068030;28;20213;-70
2021/12/21 13:13:18;;;;;;;9.90;5.80;;;-0.20;58.60;;;;;;5066736;28;20292;-71
2021/12/21 13:15:47;;;;;;;14.37;6.47;;;-0.20;59.10;;;;;;5065502;28;20590;-71
2021/12/21 13:18:17;;;;;;;8.27;5.40;;;-0.20;59.60;;;;;;5069927;28;20308;-69
2021/12/21 13:20:47;;;;;;;9.87;5.60;;;-0.20;60.00;;;;;;5067405;28;20217;-70
2021/12/21 13:23:18;;;;;;;8.20;5.50;;;-0.30;60.50;;;;;;5065282;28;20285;-70
2021/12/21 13:26:00;;;;;;;9.67;5.00;;;-0.30;61.10;;;;;;5066995;28;20308;-70
2021/12/21 13:28:29;;;;;;;12.07;5.47;;;-0.40;62.10;;;;;;5067289;28;20205;-70
2021/12/21 13:30:57;;;;;;;8.47;5.33;;;-0.50;62.80;;;;;;5066507;28;20201;-70